createdAt,value
2023-03-29T00:03:04.345Z,101984.22
2023-03-29T00:06:33.232Z,101971.97
2023-03-29T00:09:54.699Z,101961.50
2023-03-29T00:13:17.958Z,101965.91
2023-03-29T00:16:39.518Z,101951.91
2023-03-29T00:20:01.007Z,101946.66
2023-03-29T00:23:25.090Z,101937.97
2023-03-29T00:26:46.782Z,101946.75
2023-03-29T00:30:11.172Z,101941.50
2023-03-29T00:33:32.964Z,101948.50
2023-03-29T00:36:58.009Z,101939.84
2023-03-29T00:40:19.876Z,101946.88
2023-03-29T00:43:56.767Z,101935.56
2023-03-29T00:47:27.283Z,101923.31
2023-03-29T00:50:52.111Z,101918.06
2023-03-29T00:54:18.688Z,101911.91
2023-03-29T00:57:43.332Z,101911.91
2023-03-29T01:01:08.828Z,101914.56
2023-03-29T01:04:36.435Z,101897.06
2023-03-29T01:08:01.735Z,101890.09
2023-03-29T01:11:28.405Z,101879.63
2023-03-29T01:14:54.322Z,101881.34
2023-03-29T01:18:16.283Z,101878.78
2023-03-29T01:21:46.142Z,101877.88
2023-03-29T01:25:17.200Z,101870.19
2023-03-29T01:28:46.171Z,101867.63
2023-03-29T01:32:13.054Z,101874.75
2023-03-29T01:35:41.188Z,101867.84
2023-03-29T01:39:07.204Z,101865.31
2023-03-29T01:42:39.950Z,101867.13
2023-03-29T01:46:09.609Z,101858.34
2023-03-29T01:49:37.139Z,101840.91
2023-03-29T01:53:04.291Z,101848.81
2023-03-29T01:56:29.250Z,101844.41
2023-03-29T01:59:51.989Z,101841.78
2023-03-29T02:03:17.421Z,101827.75
2023-03-29T02:06:40.736Z,101816.38
2023-03-29T02:10:03.288Z,101811.00
2023-03-29T02:13:25.358Z,101807.41
2023-03-29T02:16:49.639Z,101806.50
2023-03-29T02:20:19.137Z,101796.03
2023-03-29T02:23:46.690Z,101798.63
2023-03-29T02:27:08.621Z,101789.84
2023-03-29T02:30:35.768Z,101790.75
2023-03-29T02:34:02.274Z,101780.22
2023-03-29T02:37:30.198Z,101782.81
2023-03-29T02:40:52.929Z,101776.50
2023-03-29T02:44:18.171Z,101768.63
2023-03-29T02:47:43.021Z,101778.19
2023-03-29T02:51:10.227Z,101770.41
2023-03-29T02:54:33.810Z,101767.81
2023-03-29T02:57:55.421Z,101755.63
2023-03-29T03:01:20.424Z,101764.34
2023-03-29T03:04:44.719Z,101756.50
2023-03-29T03:08:08.285Z,101748.56
2023-03-29T03:11:31.190Z,101747.66
2023-03-29T03:14:53.051Z,101738.94
2023-03-29T03:18:15.071Z,101742.41
2023-03-29T03:21:37.749Z,101736.22
2023-03-29T03:24:59.429Z,101735.31
2023-03-29T03:28:24.306Z,101737.03
2023-03-29T03:31:46.875Z,101733.50
2023-03-29T03:35:25.342Z,101723.84
2023-03-29T03:38:47.724Z,101716.84
2023-03-29T03:42:09.531Z,101724.66
2023-03-29T03:45:37.984Z,101717.75
2023-03-29T03:49:06.666Z,101710.84
2023-03-29T03:52:32.808Z,101714.47
2023-03-29T03:55:56.244Z,101707.47
2023-03-29T03:59:22.446Z,101708.41
2023-03-29T04:03:02.619Z,101705.03
2023-03-29T04:06:25.447Z,101705.13
2023-03-29T04:10:08.687Z,101693.13
2023-03-29T04:13:33.288Z,101698.41
2023-03-29T04:17:17.835Z,101696.69
2023-03-29T04:20:46.119Z,101686.25
2023-03-29T04:24:09.313Z,101695.88
2023-03-29T04:27:33.751Z,101688.06
2023-03-29T04:30:59.673Z,101693.22
2023-03-29T04:34:34.078Z,101688.69
2023-03-29T04:37:57.345Z,101693.00
2023-03-29T04:41:20.074Z,101685.97
2023-03-29T04:45:18.523Z,101676.38
2023-03-29T04:48:57.407Z,101685.06
2023-03-29T04:52:33.008Z,101679.03
2023-03-29T04:55:59.390Z,101685.13
2023-03-29T04:59:41.463Z,101672.88
2023-03-29T05:03:14.646Z,101676.41
2023-03-29T05:07:03.045Z,101672.06
2023-03-29T05:10:25.206Z,101671.25
2023-03-29T05:13:48.881Z,101665.94
2023-03-29T05:17:10.646Z,101667.66
2023-03-29T05:20:32.501Z,101665.78
2023-03-29T05:23:55.301Z,101658.72
2023-03-29T05:27:36.143Z,101657.66
2023-03-29T05:31:06.322Z,101653.09
2023-03-29T05:34:31.475Z,101645.03
2023-03-29T05:37:56.548Z,101643.22
2023-03-29T05:41:18.952Z,101639.56
2023-03-29T05:45:03.281Z,101635.00
2023-03-29T05:48:27.383Z,101625.13
2023-03-29T05:51:49.288Z,101625.00
2023-03-29T05:55:11.684Z,101625.06
2023-03-29T05:58:34.382Z,101620.56
2023-03-29T06:01:56.248Z,101619.59
2023-03-29T06:05:20.993Z,101621.25
2023-03-29T06:08:53.215Z,101628.91
2023-03-29T06:12:35.458Z,101632.16
2023-03-29T06:15:58.624Z,101617.09
2023-03-29T06:19:20.405Z,101613.31
2023-03-29T06:22:44.216Z,101620.75
2023-03-29T06:26:07.494Z,101608.06
2023-03-29T06:29:31.717Z,101617.34
2023-03-29T06:32:54.673Z,101617.72
2023-03-29T06:36:36.778Z,101618.97
2023-03-29T06:40:00.986Z,101614.13
2023-03-29T06:43:29.171Z,101620.66
2023-03-29T06:47:01.488Z,101620.09
2023-03-29T06:50:23.448Z,101616.97
2023-03-29T06:54:04.171Z,101603.22
2023-03-29T06:57:28.013Z,101606.28
2023-03-29T07:00:49.817Z,101586.69
2023-03-29T07:04:18.944Z,101596.53
2023-03-29T07:08:11.248Z,101593.34
2023-03-29T07:11:46.700Z,101598.09
2023-03-29T07:15:20.135Z,101588.72
2023-03-29T07:19:01.709Z,101587.44
2023-03-29T07:22:44.600Z,101603.53
2023-03-29T07:26:07.620Z,101594.38
2023-03-29T07:29:29.911Z,101590.41
2023-03-29T07:32:53.558Z,101592.66
2023-03-29T07:36:38.535Z,101597.44
2023-03-29T07:40:01.240Z,101597.06
2023-03-29T07:43:34.161Z,101599.22
2023-03-29T07:46:56.247Z,101589.25
2023-03-29T07:50:19.326Z,101581.75
2023-03-29T07:53:41.088Z,101576.88
2023-03-29T07:57:17.336Z,101570.47
2023-03-29T08:00:45.576Z,101575.00
2023-03-29T08:04:30.434Z,101563.91
2023-03-29T08:08:28.663Z,101569.47
2023-03-29T08:11:54.615Z,101564.63
2023-03-29T08:15:24.176Z,101569.44
2023-03-29T08:18:46.194Z,101569.06
2023-03-29T08:22:08.151Z,101566.97
2023-03-29T08:25:52.150Z,101572.50
2023-03-29T08:29:14.094Z,101578.56
2023-03-29T08:32:36.121Z,101576.75
2023-03-29T08:35:57.764Z,101569.69
2023-03-29T08:39:23.954Z,101569.59
2023-03-29T08:43:25.983Z,101564.88
2023-03-29T08:47:15.202Z,101563.38
2023-03-29T08:50:41.694Z,101564.69
2023-03-29T08:54:07.185Z,101565.31
2023-03-29T08:57:51.661Z,101561.56
2023-03-29T09:01:26.412Z,101564.66
2023-03-29T09:04:52.440Z,101569.00
2023-03-29T09:08:29.652Z,101559.72
2023-03-29T09:12:09.403Z,101558.53
2023-03-29T09:15:42.900Z,101547.59
2023-03-29T09:19:38.774Z,101539.66
2023-03-29T09:23:12.501Z,101542.50
2023-03-29T09:26:59.121Z,101531.66
2023-03-29T09:30:29.644Z,101532.41
2023-03-29T09:33:59.671Z,101522.34
2023-03-29T09:37:39.345Z,101514.63
2023-03-29T09:41:22.271Z,101519.38
2023-03-29T09:44:49.276Z,101511.25
2023-03-29T09:48:19.509Z,101500.91
2023-03-29T09:51:50.489Z,101501.69
2023-03-29T09:55:18.411Z,101499.25
2023-03-29T09:58:56.451Z,101497.47
2023-03-29T10:02:21.167Z,101493.47
2023-03-29T10:05:47.045Z,101492.06
2023-03-29T10:09:17.415Z,101485.25
2023-03-29T10:12:43.581Z,101478.44
2023-03-29T10:16:07.488Z,101478.69
2023-03-29T10:19:34.409Z,101479.09
2023-03-29T10:22:57.928Z,101475.75
2023-03-29T10:26:29.180Z,101472.06
2023-03-29T10:29:52.997Z,101460.31
2023-03-29T10:33:19.720Z,101461.41
2023-03-29T10:36:42.696Z,101450.88
2023-03-29T10:40:05.440Z,101449.03
2023-03-29T10:43:29.776Z,101452.78
2023-03-29T10:46:52.649Z,101455.50
2023-03-29T10:50:16.805Z,101430.22
2023-03-29T10:53:39.125Z,101438.50
2023-03-29T10:57:05.670Z,101439.63
2023-03-29T11:00:36.763Z,101437.28
2023-03-29T11:04:12.845Z,101446.94
2023-03-29T11:07:37.907Z,101435.25
2023-03-29T11:11:12.630Z,101423.25
2023-03-29T11:14:42.485Z,101435.16
2023-03-29T11:18:24.903Z,101430.47
2023-03-29T11:21:57.091Z,101418.47
2023-03-29T11:25:35.968Z,101424.41
2023-03-29T11:29:01.584Z,101419.31
2023-03-29T11:32:30.386Z,101419.75
2023-03-29T11:36:00.153Z,101406.53
2023-03-29T11:39:37.762Z,101414.06
2023-03-29T11:43:04.542Z,101395.81
2023-03-29T11:46:31.522Z,101389.31
2023-03-29T11:49:57.405Z,101389.41
2023-03-29T11:53:26.342Z,101379.06
2023-03-29T11:56:56.777Z,101385.75
2023-03-29T12:00:24.129Z,101380.97
2023-03-29T12:03:51.696Z,101375.94
2023-03-29T12:07:18.948Z,101373.38
2023-03-29T12:10:46.266Z,101360.13
2023-03-29T12:14:15.315Z,101354.34
2023-03-29T12:17:42.830Z,101372.41
2023-03-29T12:21:12.148Z,101360.13
2023-03-29T12:24:37.519Z,101354.06
2023-03-29T12:28:09.902Z,101356.81
2023-03-29T12:31:40.769Z,101350.75
2023-03-29T12:35:19.246Z,101346.81
2023-03-29T12:39:00.113Z,101344.47
2023-03-29T12:42:53.224Z,101334.19
2023-03-29T12:46:41.945Z,101330.78
2023-03-29T12:50:04.725Z,101338.19
2023-03-29T12:53:32.403Z,101328.59
2023-03-29T12:57:01.104Z,101332.03
2023-03-29T13:00:27.226Z,101343.19
2023-03-29T13:03:52.664Z,101336.16
2023-03-29T13:07:16.501Z,101328.41
2023-03-29T13:10:42.396Z,101333.38
2023-03-29T13:14:12.584Z,101330.25
2023-03-29T13:17:46.035Z,101327.19
2023-03-29T13:21:18.815Z,101312.47
2023-03-29T13:25:06.679Z,101305.75
2023-03-29T13:28:35.781Z,101295.38
2023-03-29T13:32:05.360Z,101293.69
2023-03-29T13:35:42.502Z,101299.50
2023-03-29T13:39:08.356Z,101296.00
2023-03-29T13:42:41.803Z,101305.69
2023-03-29T13:46:20.210Z,101308.84
2023-03-29T13:49:44.854Z,101308.31
2023-03-29T13:53:13.817Z,101306.81
2023-03-29T13:56:41.634Z,101317.41
2023-03-29T14:00:11.793Z,101296.13
2023-03-29T14:03:41.551Z,101278.22
2023-03-29T14:07:03.783Z,101275.19
2023-03-29T14:10:28.600Z,101287.22
2023-03-29T14:13:53.725Z,101285.91
2023-03-29T14:17:20.428Z,101284.72
2023-03-29T14:20:45.070Z,101282.78
2023-03-29T14:24:12.550Z,101282.53
2023-03-29T14:27:37.801Z,101281.19
2023-03-29T14:31:01.116Z,101287.66
2023-03-29T14:34:24.141Z,101290.31
2023-03-29T14:37:47.710Z,101295.97
2023-03-29T14:41:10.054Z,101299.00
2023-03-29T14:44:34.835Z,101299.84
2023-03-29T14:48:00.618Z,101288.94
2023-03-29T14:51:23.383Z,101281.03
2023-03-29T14:54:49.541Z,101283.09
2023-03-29T14:58:20.694Z,101283.94
2023-03-29T15:01:45.582Z,101279.34
2023-03-29T15:05:25.662Z,101283.66
2023-03-29T15:09:03.778Z,101275.19
2023-03-29T15:12:29.693Z,101278.06
2023-03-29T15:15:54.830Z,101272.44
2023-03-29T15:19:19.415Z,101267.69
2023-03-29T15:22:54.753Z,101265.91
2023-03-29T15:26:22.033Z,101269.16
2023-03-29T15:29:46.880Z,101265.19
2023-03-29T15:33:17.763Z,101260.28
2023-03-29T15:36:43.198Z,101263.81
2023-03-29T15:40:09.775Z,101250.50
2023-03-29T15:43:32.011Z,101243.25
2023-03-29T15:46:55.223Z,101241.78
2023-03-29T15:50:16.753Z,101236.22
2023-03-29T15:53:38.601Z,101227.19
2023-03-29T15:57:06.578Z,101227.69
2023-03-29T16:00:28.897Z,101226.00
2023-03-29T16:03:51.132Z,101216.00
2023-03-29T16:07:16.004Z,101225.44
2023-03-29T16:10:37.670Z,101225.94
2023-03-29T16:14:01.214Z,101219.19
2023-03-29T16:17:22.945Z,101220.03
2023-03-29T16:20:44.882Z,101212.56
2023-03-29T16:24:07.307Z,101205.16
2023-03-29T16:27:29.683Z,101207.09
2023-03-29T16:30:52.907Z,101203.13
2023-03-29T16:34:16.253Z,101225.00
2023-03-29T16:37:37.720Z,101214.16
2023-03-29T16:40:59.513Z,101222.88
2023-03-29T16:44:24.359Z,101229.16
2023-03-29T16:47:47.618Z,101221.91
2023-03-29T16:51:10.418Z,101219.97
2023-03-29T16:54:32.626Z,101225.28
2023-03-29T16:57:54.336Z,101224.56
2023-03-29T17:01:17.556Z,101215.84
2023-03-29T17:04:40.473Z,101216.06
2023-03-29T17:08:02.230Z,101217.25
2023-03-29T17:11:24.080Z,101207.56
2023-03-29T17:14:45.853Z,101209.28
2023-03-29T17:18:07.797Z,101203.94
2023-03-29T17:21:31.687Z,101215.56
2023-03-29T17:24:53.605Z,101213.16
2023-03-29T17:28:15.379Z,101214.97
2023-03-29T17:31:38.019Z,101208.91
2023-03-29T17:35:00.325Z,101212.56
2023-03-29T17:38:23.653Z,101209.03
2023-03-29T17:41:45.713Z,101202.97
2023-03-29T17:45:08.832Z,101201.19
2023-03-29T17:48:31.759Z,101204.91
2023-03-29T17:51:53.609Z,101203.22
2023-03-29T17:55:17.303Z,101204.38
2023-03-29T17:58:39.382Z,101203.66
2023-03-29T18:02:02.562Z,101207.28
2023-03-29T18:05:24.098Z,101208.25
2023-03-29T18:08:46.319Z,101196.88
2023-03-29T18:12:09.891Z,101197.84
2023-03-29T18:15:31.763Z,101198.81
2023-03-29T18:18:53.538Z,101202.44
2023-03-29T18:22:15.387Z,101196.38
2023-03-29T18:25:38.717Z,101198.31
2023-03-29T18:29:01.871Z,101204.72
2023-03-29T18:32:23.784Z,101193.44
2023-03-29T18:35:48.586Z,101193.56
2023-03-29T18:39:10.986Z,101196.34
2023-03-29T18:42:32.550Z,101191.25
2023-03-29T18:45:55.897Z,101186.06
2023-03-29T18:49:17.336Z,101191.38
2023-03-29T18:52:39.304Z,101192.47
2023-03-29T18:56:02.648Z,101197.06
2023-03-29T18:59:24.377Z,101191.72
2023-03-29T19:02:47.427Z,101192.69
2023-03-29T19:06:10.107Z,101202.38
2023-03-29T19:09:32.421Z,101204.06
2023-03-29T19:12:54.231Z,101197.06
2023-03-29T19:16:15.955Z,101192.69
2023-03-29T19:19:39.288Z,101204.06
2023-03-29T19:23:01.778Z,101196.94
2023-03-29T19:26:23.418Z,101195.13
2023-03-29T19:29:46.166Z,101189.78
2023-03-29T19:33:07.749Z,101188.00
2023-03-29T19:36:32.002Z,101189.78
2023-03-29T19:39:55.564Z,101184.72
2023-03-29T19:43:18.040Z,101177.69
2023-03-29T19:46:39.348Z,101183.97
2023-03-29T19:50:01.806Z,101184.09
2023-03-29T19:53:24.759Z,101177.06
2023-03-29T19:56:46.358Z,101174.53
2023-03-29T20:00:10.110Z,101171.75
2023-03-29T20:03:36.097Z,101170.03
2023-03-29T20:06:57.818Z,101162.78
2023-03-29T20:10:21.120Z,101150.44
2023-03-29T20:13:44.486Z,101148.66
2023-03-29T20:17:06.029Z,101146.81
2023-03-29T20:20:28.353Z,101146.81
2023-03-29T20:23:50.253Z,101145.88
2023-03-29T20:27:13.865Z,101139.72
2023-03-29T20:30:36.361Z,101146.81
2023-03-29T20:33:57.929Z,101142.47
2023-03-29T20:37:23.057Z,101138.25
2023-03-29T20:40:44.937Z,101132.19
2023-03-29T20:44:07.912Z,101131.56
2023-03-29T20:47:29.743Z,101122.03
2023-03-29T20:50:52.104Z,101114.16
2023-03-29T20:54:14.368Z,101111.63
2023-03-29T20:57:37.998Z,101112.56
2023-03-29T21:01:01.177Z,101107.38
2023-03-29T21:04:23.311Z,101101.31
2023-03-29T21:07:47.965Z,101111.25
2023-03-29T21:11:13.048Z,101118.50
2023-03-29T21:14:34.872Z,101107.00
2023-03-29T21:17:57.976Z,101095.50
2023-03-29T21:21:19.493Z,101095.50
2023-03-29T21:24:41.543Z,101103.59
2023-03-29T21:28:03.083Z,101092.97
2023-03-29T21:31:25.434Z,101086.81
2023-03-29T21:34:48.693Z,101075.31
2023-03-29T21:38:10.346Z,101081.72
2023-03-29T21:41:31.686Z,101078.19
2023-03-29T21:44:53.181Z,101066.84
2023-03-29T21:48:14.989Z,101075.78
2023-03-29T21:51:38.319Z,101062.59
2023-03-29T21:54:59.870Z,101074.91
2023-03-29T21:58:22.069Z,101058.97
2023-03-29T22:01:44.097Z,101059.81
2023-03-29T22:05:06.972Z,101050.03
2023-03-29T22:08:30.899Z,101051.13
2023-03-29T22:11:52.473Z,101044.94
2023-03-29T22:15:15.081Z,101038.78
2023-03-29T22:18:43.327Z,101039.63
2023-03-29T22:22:07.295Z,101038.66
2023-03-29T22:25:30.508Z,101026.22
2023-03-29T22:28:52.736Z,101039.41
2023-03-29T22:32:14.496Z,101034.91
2023-03-29T22:35:36.557Z,101027.03
2023-03-29T22:38:58.507Z,101030.56
2023-03-29T22:42:21.714Z,101034.19
2023-03-29T22:45:43.495Z,101028.88
2023-03-29T22:49:06.142Z,101023.78
2023-03-29T22:52:27.760Z,101026.69
2023-03-29T22:55:49.602Z,101025.00
2023-03-29T22:59:13.019Z,101017.13
2023-03-29T23:02:34.794Z,101017.13
2023-03-29T23:05:58.584Z,101017.13
2023-03-29T23:09:20.420Z,101018.09
2023-03-29T23:12:42.903Z,101017.25
2023-03-29T23:16:06.626Z,101007.59
2023-03-29T23:19:28.357Z,101006.63
2023-03-29T23:22:50.291Z,101004.69
2023-03-29T23:26:11.849Z,101001.16
2023-03-29T23:29:34.499Z,100995.84
2023-03-29T23:32:58.262Z,100991.41
2023-03-29T23:36:21.415Z,100996.00
2023-03-29T23:39:42.730Z,100995.13
2023-03-29T23:43:04.516Z,100991.75
2023-03-29T23:46:26.365Z,100985.69
2023-03-29T23:49:50.679Z,100980.50
2023-03-29T23:53:12.472Z,100982.41
2023-03-29T23:56:34.238Z,100977.22
